createdAt,value
2022-11-19T00:01:31.777Z,100518.97
2022-11-19T00:03:58.248Z,100516.22
2022-11-19T00:06:26.794Z,100509.22
2022-11-19T00:08:53.830Z,100521.66
2022-11-19T00:11:41.167Z,100523.94
2022-11-19T00:14:10.043Z,100518.94
2022-11-19T00:16:36.194Z,100513.75
2022-11-19T00:19:03.180Z,100522.59
2022-11-19T00:21:29.253Z,100524.91
2022-11-19T00:23:56.487Z,100520.34
2022-11-19T00:26:23.077Z,100520.22
2022-11-19T00:28:49.586Z,100526.25
2022-11-19T00:31:16.396Z,100539.78
2022-11-19T00:33:44.450Z,100538.09
2022-11-19T00:36:13.165Z,100531.50
2022-11-19T00:38:39.585Z,100526.38
2022-11-19T00:41:06.323Z,100531.22
2022-11-19T00:43:49.395Z,100541.69
2022-11-19T00:46:19.582Z,100543.41
2022-11-19T00:48:47.906Z,100535.22
2022-11-19T00:51:15.217Z,100548.47
2022-11-19T00:53:41.647Z,100548.75
2022-11-19T00:56:10.906Z,100556.56
2022-11-19T00:58:37.623Z,100556.00
2022-11-19T01:01:04.616Z,100556.56
2022-11-19T01:03:31.969Z,100563.53
2022-11-19T01:05:58.269Z,100550.75
2022-11-19T01:08:24.660Z,100559.88
2022-11-19T01:10:50.838Z,100554.84
2022-11-19T01:13:35.270Z,100559.22
2022-11-19T01:16:04.792Z,100562.09
2022-11-19T01:18:31.952Z,100568.19
2022-11-19T01:20:58.111Z,100573.31
2022-11-19T01:23:24.518Z,100572.28
2022-11-19T01:25:50.691Z,100564.69
2022-11-19T01:28:17.299Z,100567.63
2022-11-19T01:30:43.688Z,100564.44
2022-11-19T01:33:10.109Z,100569.91
2022-11-19T01:35:36.643Z,100574.28
2022-11-19T01:38:04.706Z,100574.56
2022-11-19T01:40:31.773Z,100567.50
2022-11-19T01:42:58.141Z,100564.28
2022-11-19T01:45:36.049Z,100555.81
2022-11-19T01:48:25.604Z,100564.06
2022-11-19T01:50:56.545Z,100562.44
2022-11-19T01:53:28.837Z,100564.19
2022-11-19T01:55:58.843Z,100557.88
2022-11-19T01:58:25.496Z,100557.31
2022-11-19T02:00:51.591Z,100558.31
2022-11-19T02:03:18.745Z,100563.38
2022-11-19T02:05:46.547Z,100560.44
2022-11-19T02:08:42.364Z,100571.81
2022-11-19T02:11:33.615Z,100560.06
2022-11-19T02:14:12.055Z,100560.03
2022-11-19T02:17:19.662Z,100554.09
2022-11-19T02:20:07.187Z,100567.22
2022-11-19T02:22:50.985Z,100576.81
2022-11-19T02:26:14.449Z,100561.06
2022-11-19T02:28:45.958Z,100556.50
2022-11-19T02:31:38.723Z,100568.91
2022-11-19T02:34:13.582Z,100570.00
2022-11-19T02:37:04.455Z,100568.75
2022-11-19T02:39:45.806Z,100561.44
2022-11-19T02:42:17.612Z,100568.66
2022-11-19T02:45:21.989Z,100579.09
2022-11-19T02:47:55.899Z,100577.56
2022-11-19T02:50:34.972Z,100570.28
2022-11-19T02:53:03.758Z,100570.63
2022-11-19T02:55:30.762Z,100577.03
2022-11-19T02:58:05.894Z,100579.84
2022-11-19T03:01:00.872Z,100578.69
2022-11-19T03:03:47.066Z,100580.31
2022-11-19T03:06:33.969Z,100579.31
2022-11-19T03:09:01.645Z,100582.28
2022-11-19T03:11:30.023Z,100589.16
2022-11-19T03:14:40.187Z,100587.44
2022-11-19T03:17:20.822Z,100591.66
2022-11-19T03:20:00.580Z,100598.06
2022-11-19T03:22:26.672Z,100597.28
2022-11-19T03:25:04.684Z,100598.03
2022-11-19T03:27:37.935Z,100606.56
2022-11-19T03:30:05.266Z,100599.63
2022-11-19T03:32:43.629Z,100606.88
2022-11-19T03:35:18.706Z,100611.69
2022-11-19T03:37:50.060Z,100609.78
2022-11-19T03:40:18.773Z,100609.72
2022-11-19T03:42:50.492Z,100613.38
2022-11-19T03:45:23.147Z,100610.78
2022-11-19T03:47:51.500Z,100620.31
2022-11-19T03:50:27.007Z,100637.34
2022-11-19T03:52:53.647Z,100626.41
2022-11-19T03:55:30.448Z,100625.97
2022-11-19T03:58:08.733Z,100628.22
2022-11-19T04:00:35.117Z,100624.78
2022-11-19T04:03:01.496Z,100631.19
2022-11-19T04:05:28.133Z,100627.09
2022-11-19T04:07:54.279Z,100630.53
2022-11-19T04:10:20.928Z,100631.63
2022-11-19T04:12:47.189Z,100626.78
2022-11-19T04:15:14.748Z,100621.00
2022-11-19T04:17:41.038Z,100633.09
2022-11-19T04:20:08.624Z,100628.53
2022-11-19T04:22:34.738Z,100634.16
2022-11-19T04:25:01.307Z,100625.53
2022-11-19T04:27:27.368Z,100626.47
2022-11-19T04:29:53.747Z,100630.22
2022-11-19T04:32:19.828Z,100623.13
2022-11-19T04:34:46.209Z,100633.56
2022-11-19T04:37:12.380Z,100630.66
2022-11-19T04:39:38.745Z,100623.00
2022-11-19T04:42:04.828Z,100627.41
2022-11-19T04:44:32.280Z,100633.38
2022-11-19T04:46:59.079Z,100620.72
2022-11-19T04:49:25.983Z,100632.09
2022-11-19T04:51:52.263Z,100631.91
2022-11-19T04:54:18.585Z,100632.47
2022-11-19T04:56:44.665Z,100634.19
2022-11-19T04:59:11.034Z,100623.25
2022-11-19T05:01:37.129Z,100616.63
2022-11-19T05:04:03.772Z,100614.16
2022-11-19T05:06:29.869Z,100613.84
2022-11-19T05:08:56.275Z,100611.03
2022-11-19T05:11:22.391Z,100615.22
2022-11-19T05:13:48.731Z,100617.84
2022-11-19T05:16:15.026Z,100616.13
2022-11-19T05:18:41.436Z,100609.53
2022-11-19T05:21:07.564Z,100612.22
2022-11-19T05:23:33.942Z,100613.44
2022-11-19T05:25:59.993Z,100603.78
2022-11-19T05:28:37.885Z,100615.81
2022-11-19T05:31:05.191Z,100624.13
2022-11-19T05:33:34.329Z,100612.94
2022-11-19T05:36:01.696Z,100610.16
2022-11-19T05:38:28.141Z,100616.66
2022-11-19T05:40:54.354Z,100611.78
2022-11-19T05:43:20.763Z,100611.41
2022-11-19T05:45:46.860Z,100610.34
2022-11-19T05:48:13.531Z,100617.91
2022-11-19T05:50:41.720Z,100618.56
2022-11-19T05:53:08.614Z,100619.81
2022-11-19T05:55:35.649Z,100618.41
2022-11-19T05:58:02.018Z,100620.69
2022-11-19T06:00:28.496Z,100623.41
2022-11-19T06:02:54.960Z,100617.94
2022-11-19T06:05:21.145Z,100626.03
2022-11-19T06:07:47.516Z,100626.59
2022-11-19T06:10:13.661Z,100615.06
2022-11-19T06:12:45.537Z,100627.16
2022-11-19T06:15:13.408Z,100612.72
2022-11-19T06:17:40.256Z,100620.34
2022-11-19T06:20:10.108Z,100624.63
2022-11-19T06:22:37.230Z,100616.81
2022-11-19T06:25:04.388Z,100620.97
2022-11-19T06:27:31.055Z,100620.03
2022-11-19T06:29:57.655Z,100619.03
2022-11-19T06:32:24.492Z,100616.25
2022-11-19T06:34:51.082Z,100617.94
2022-11-19T06:37:19.042Z,100615.97
2022-11-19T06:39:45.512Z,100615.53
2022-11-19T06:42:31.428Z,100603.84
2022-11-19T06:44:57.706Z,100621.81
2022-11-19T06:47:24.163Z,100624.53
2022-11-19T06:49:50.770Z,100618.47
2022-11-19T06:52:17.323Z,100622.78
2022-11-19T06:54:43.714Z,100622.06
2022-11-19T06:57:10.516Z,100622.22
2022-11-19T06:59:38.287Z,100620.59
2022-11-19T07:02:05.660Z,100624.09
2022-11-19T07:04:32.078Z,100618.66
2022-11-19T07:06:58.758Z,100624.16
2022-11-19T07:09:25.060Z,100630.09
2022-11-19T07:11:51.659Z,100625.00
2022-11-19T07:14:18.059Z,100636.13
2022-11-19T07:16:44.482Z,100628.66
2022-11-19T07:19:10.591Z,100639.69
2022-11-19T07:21:37.230Z,100637.81
2022-11-19T07:24:05.945Z,100636.75
2022-11-19T07:26:33.597Z,100639.16
2022-11-19T07:29:05.566Z,100635.03
2022-11-19T07:31:32.711Z,100638.94
2022-11-19T07:33:59.062Z,100635.53
2022-11-19T07:36:25.820Z,100642.25
2022-11-19T07:38:51.998Z,100638.06
2022-11-19T07:41:37.818Z,100635.94
2022-11-19T07:44:04.281Z,100642.16
2022-11-19T07:46:31.270Z,100642.53
2022-11-19T07:49:01.545Z,100644.59
2022-11-19T07:51:32.392Z,100645.47
2022-11-19T07:54:00.463Z,100639.69
2022-11-19T07:56:27.352Z,100643.66
2022-11-19T07:58:53.640Z,100643.81
2022-11-19T08:01:23.415Z,100635.22
2022-11-19T08:03:56.073Z,100630.53
2022-11-19T08:06:27.804Z,100627.09
2022-11-19T08:08:58.313Z,100633.22
2022-11-19T08:11:24.929Z,100624.94
2022-11-19T08:13:52.495Z,100626.81
2022-11-19T08:16:40.056Z,100625.13
2022-11-19T08:19:10.040Z,100630.41
2022-11-19T08:21:40.463Z,100629.47
2022-11-19T08:24:08.208Z,100626.25
2022-11-19T08:26:35.228Z,100624.44
2022-11-19T08:29:01.529Z,100625.91
2022-11-19T08:31:28.120Z,100618.78
2022-11-19T08:33:54.319Z,100621.25
2022-11-19T08:36:20.767Z,100613.94
2022-11-19T08:38:47.129Z,100626.34
2022-11-19T08:41:32.247Z,100621.94
2022-11-19T08:44:00.664Z,100624.25
2022-11-19T08:46:27.256Z,100620.13
2022-11-19T08:48:53.443Z,100618.72
2022-11-19T08:51:19.896Z,100624.34
2022-11-19T08:53:46.210Z,100617.47
2022-11-19T08:56:16.862Z,100613.75
2022-11-19T08:58:44.585Z,100613.72
2022-11-19T09:01:13.639Z,100618.78
2022-11-19T09:03:40.342Z,100611.53
2022-11-19T09:06:07.838Z,100618.47
2022-11-19T09:08:34.919Z,100615.84
2022-11-19T09:11:13.952Z,100614.56
2022-11-19T09:13:42.657Z,100614.47
2022-11-19T09:16:10.576Z,100614.69
2022-11-19T09:18:41.292Z,100618.13
2022-11-19T09:21:10.310Z,100615.75
2022-11-19T09:23:36.811Z,100606.78
2022-11-19T09:26:09.057Z,100615.56
2022-11-19T09:28:35.690Z,100613.72
2022-11-19T09:31:02.362Z,100608.38
2022-11-19T09:33:30.139Z,100612.75
2022-11-19T09:35:57.753Z,100608.31
2022-11-19T09:38:24.625Z,100609.78
2022-11-19T09:40:53.183Z,100603.03
2022-11-19T09:43:38.033Z,100608.50
2022-11-19T09:46:19.016Z,100606.84
2022-11-19T09:48:45.756Z,100596.81
2022-11-19T09:51:15.337Z,100595.50
2022-11-19T09:53:50.755Z,100591.88
2022-11-19T09:56:25.502Z,100583.50
2022-11-19T09:58:54.655Z,100585.56
2022-11-19T10:01:21.088Z,100579.59
2022-11-19T10:03:49.781Z,100572.78
2022-11-19T10:06:27.124Z,100567.22
2022-11-19T10:09:04.693Z,100568.28
2022-11-19T10:12:03.772Z,100565.72
2022-11-19T10:14:42.300Z,100567.03
2022-11-19T10:17:19.310Z,100558.28
2022-11-19T10:20:25.215Z,100548.97
2022-11-19T10:22:57.668Z,100542.34
2022-11-19T10:25:42.135Z,100528.75
2022-11-19T10:28:14.991Z,100533.34
2022-11-19T10:30:53.837Z,100527.97
2022-11-19T10:33:26.271Z,100521.34
2022-11-19T10:36:02.823Z,100524.00
2022-11-19T10:38:35.680Z,100522.59
2022-11-19T10:41:20.917Z,100515.97
2022-11-19T10:43:59.514Z,100517.91
2022-11-19T10:46:27.931Z,100519.06
2022-11-19T10:48:57.664Z,100516.81
2022-11-19T10:51:30.116Z,100525.28
2022-11-19T10:53:57.190Z,100512.41
2022-11-19T10:56:38.252Z,100515.31
2022-11-19T10:59:13.452Z,100516.28
2022-11-19T11:01:43.886Z,100503.31
2022-11-19T11:04:13.595Z,100495.81
2022-11-19T11:06:50.614Z,100510.75
2022-11-19T11:09:31.496Z,100501.25
2022-11-19T11:12:20.772Z,100499.25
2022-11-19T11:14:53.693Z,100492.72
2022-11-19T11:17:31.466Z,100498.72
2022-11-19T11:20:03.478Z,100499.78
2022-11-19T11:22:30.808Z,100497.84
2022-11-19T11:25:05.729Z,100498.81
2022-11-19T11:27:34.754Z,100486.19
2022-11-19T11:30:16.727Z,100492.28
2022-11-19T11:32:43.481Z,100478.56
2022-11-19T11:35:35.389Z,100475.13
2022-11-19T11:38:04.754Z,100472.75
2022-11-19T11:40:31.373Z,100470.78
2022-11-19T11:42:57.907Z,100467.75
2022-11-19T11:45:32.555Z,100468.50
2022-11-19T11:48:06.726Z,100459.66
2022-11-19T11:50:36.375Z,100459.13
2022-11-19T11:53:08.955Z,100448.41
2022-11-19T11:55:37.979Z,100448.91
2022-11-19T11:58:22.666Z,100443.91
2022-11-19T12:00:52.363Z,100446.47
2022-11-19T12:03:19.407Z,100451.56
2022-11-19T12:05:49.397Z,100447.16
2022-11-19T12:08:27.035Z,100446.53
2022-11-19T12:10:56.987Z,100440.03
2022-11-19T12:13:48.601Z,100442.50
2022-11-19T12:16:37.539Z,100440.03
2022-11-19T12:19:20.345Z,100437.81
2022-11-19T12:21:49.570Z,100427.34
2022-11-19T12:24:34.049Z,100430.88
2022-11-19T12:27:06.468Z,100429.03
2022-11-19T12:29:58.024Z,100424.94
2022-11-19T12:32:33.973Z,100433.84
2022-11-19T12:35:33.988Z,100428.03
2022-11-19T12:38:17.170Z,100427.69
2022-11-19T12:41:12.756Z,100430.00
2022-11-19T12:43:58.869Z,100444.00
2022-11-19T12:46:45.054Z,100444.38
2022-11-19T12:49:41.448Z,100446.31
2022-11-19T12:52:16.897Z,100450.16
2022-11-19T12:54:56.951Z,100453.75
2022-11-19T12:57:38.547Z,100442.44
2022-11-19T13:00:11.094Z,100443.44
2022-11-19T13:02:51.456Z,100448.78
2022-11-19T13:05:19.723Z,100449.59
2022-11-19T13:08:09.452Z,100446.19
2022-11-19T13:10:41.592Z,100461.78
2022-11-19T13:13:13.669Z,100455.63
2022-11-19T13:15:47.786Z,100454.91
2022-11-19T13:18:16.904Z,100466.25
2022-11-19T13:20:51.123Z,100453.94
2022-11-19T13:23:40.130Z,100450.50
2022-11-19T13:26:12.755Z,100454.31
2022-11-19T13:28:48.178Z,100465.75
2022-11-19T13:31:40.772Z,100468.31
2022-11-19T13:34:26.240Z,100478.84
2022-11-19T13:37:14.274Z,100475.91
2022-11-19T13:40:18.980Z,100480.41
2022-11-19T13:43:30.596Z,100474.88
2022-11-19T13:46:04.087Z,100484.84
2022-11-19T13:48:36.387Z,100480.09
2022-11-19T13:51:09.122Z,100480.00
2022-11-19T13:53:44.349Z,100487.16
2022-11-19T13:56:16.614Z,100487.25
2022-11-19T13:58:49.977Z,100476.28
2022-11-19T14:01:35.003Z,100479.50
2022-11-19T14:04:36.694Z,100483.63
2022-11-19T14:07:40.194Z,100486.81
2022-11-19T14:10:24.708Z,100481.00
2022-11-19T14:12:56.633Z,100482.31
2022-11-19T14:15:51.271Z,100478.94
2022-11-19T14:18:53.066Z,100481.50
2022-11-19T14:21:42.581Z,100475.34
2022-11-19T14:24:42.595Z,100476.72
2022-11-19T14:27:25.541Z,100479.41
2022-11-19T14:30:16.018Z,100478.47
2022-11-19T14:32:51.255Z,100476.78
2022-11-19T14:35:26.706Z,100475.28
2022-11-19T14:37:57.214Z,100478.50
2022-11-19T14:40:30.887Z,100479.22
2022-11-19T14:43:18.990Z,100474.94
2022-11-19T14:46:00.350Z,100472.94
2022-11-19T14:48:29.212Z,100478.78
2022-11-19T14:51:01.258Z,100478.06
2022-11-19T14:53:27.732Z,100470.59
2022-11-19T14:55:53.898Z,100474.22
2022-11-19T14:58:23.531Z,100479.03
2022-11-19T15:01:04.846Z,100473.38
2022-11-19T15:03:31.690Z,100468.13
2022-11-19T15:06:04.471Z,100462.56
2022-11-19T15:08:48.852Z,100457.97
2022-11-19T15:11:16.479Z,100463.97
2022-11-19T15:13:45.406Z,100456.47
2022-11-19T15:16:25.806Z,100464.81
2022-11-19T15:18:55.007Z,100468.34
2022-11-19T15:21:39.143Z,100460.88
2022-11-19T15:24:23.260Z,100468.13
2022-11-19T15:27:30.577Z,100476.03
2022-11-19T15:30:06.492Z,100459.03
2022-11-19T15:33:07.027Z,100465.03
2022-11-19T15:35:51.526Z,100448.47
2022-11-19T15:38:24.219Z,100459.16
2022-11-19T15:40:54.330Z,100452.31
2022-11-19T15:43:29.933Z,100448.66
2022-11-19T15:46:04.299Z,100448.88
2022-11-19T15:48:40.894Z,100454.88
2022-11-19T15:51:13.867Z,100438.19
2022-11-19T15:53:57.755Z,100457.34
2022-11-19T15:56:26.923Z,100461.94
2022-11-19T15:58:53.379Z,100463.84
2022-11-19T16:01:21.404Z,100456.78
2022-11-19T16:03:51.086Z,100447.81
2022-11-19T16:06:28.887Z,100452.63
2022-11-19T16:08:59.714Z,100457.78
2022-11-19T16:11:47.878Z,100455.56
2022-11-19T16:14:45.345Z,100456.72
2022-11-19T16:17:32.372Z,100444.50
2022-11-19T16:20:21.579Z,100444.09
2022-11-19T16:22:54.228Z,100439.81
2022-11-19T16:25:30.017Z,100444.22
2022-11-19T16:27:59.604Z,100444.84
2022-11-19T16:30:29.195Z,100443.88
2022-11-19T16:32:59.352Z,100441.75
2022-11-19T16:35:30.890Z,100448.50
2022-11-19T16:38:00.137Z,100450.84
2022-11-19T16:40:47.503Z,100446.34
2022-11-19T16:43:14.524Z,100448.06
2022-11-19T16:45:46.237Z,100449.34
2022-11-19T16:48:52.450Z,100461.75
2022-11-19T16:51:34.108Z,100457.25
2022-11-19T16:54:02.942Z,100452.97
2022-11-19T16:56:42.240Z,100460.56
2022-11-19T16:59:17.651Z,100458.75
2022-11-19T17:01:51.493Z,100461.84
2022-11-19T17:04:18.738Z,100455.56
2022-11-19T17:07:12.110Z,100450.84
2022-11-19T17:09:43.174Z,100461.66
2022-11-19T17:12:55.646Z,100450.84
2022-11-19T17:15:38.003Z,100446.25
2022-11-19T17:18:33.803Z,100450.53
2022-11-19T17:21:04.400Z,100444.84
2022-11-19T17:23:33.731Z,100450.19
2022-11-19T17:26:04.004Z,100454.59
2022-11-19T17:28:37.381Z,100459.72
2022-11-19T17:31:14.245Z,100455.34
2022-11-19T17:34:14.389Z,100457.91
2022-11-19T17:36:41.826Z,100455.56
2022-11-19T17:39:12.772Z,100464.31
2022-11-19T17:41:58.824Z,100454.47
2022-11-19T17:44:38.407Z,100463.34
2022-11-19T17:47:22.239Z,100458.97
2022-11-19T17:49:49.596Z,100459.72
2022-11-19T17:52:27.639Z,100466.69
2022-11-19T17:55:03.582Z,100465.81
2022-11-19T17:57:30.599Z,100464.75
2022-11-19T17:59:56.865Z,100473.31
2022-11-19T18:02:23.838Z,100471.16
2022-11-19T18:04:51.405Z,100467.75
2022-11-19T18:07:18.101Z,100481.00
2022-11-19T18:09:44.617Z,100480.03
2022-11-19T18:12:17.264Z,100471.25
2022-11-19T18:14:44.537Z,100476.47
2022-11-19T18:17:14.061Z,100477.56
2022-11-19T18:19:41.241Z,100489.19
2022-11-19T18:22:17.602Z,100476.91
2022-11-19T18:24:49.283Z,100480.88
2022-11-19T18:27:16.545Z,100480.88
2022-11-19T18:29:42.940Z,100473.56
2022-11-19T18:32:16.135Z,100469.44
2022-11-19T18:34:44.039Z,100478.31
2022-11-19T18:37:10.971Z,100472.41
2022-11-19T18:39:37.506Z,100480.00
2022-11-19T18:42:04.113Z,100485.47
2022-11-19T18:44:37.782Z,100485.47
2022-11-19T18:47:09.358Z,100489.56
2022-11-19T18:49:36.269Z,100485.72
2022-11-19T18:52:06.415Z,100478.97
2022-11-19T18:54:36.364Z,100488.38
2022-11-19T18:57:03.460Z,100487.09
2022-11-19T18:59:29.904Z,100488.47
2022-11-19T19:01:56.564Z,100490.28
2022-11-19T19:04:23.451Z,100486.78
2022-11-19T19:06:49.921Z,100488.25
2022-11-19T19:09:19.606Z,100477.34
2022-11-19T19:12:13.003Z,100489.88
2022-11-19T19:14:41.573Z,100487.22
2022-11-19T19:17:08.246Z,100491.69
2022-11-19T19:19:35.065Z,100486.66
2022-11-19T19:22:01.784Z,100497.91
2022-11-19T19:24:28.684Z,100493.19
2022-11-19T19:26:56.308Z,100495.31
2022-11-19T19:29:22.936Z,100494.25
2022-11-19T19:31:52.325Z,100491.34
2022-11-19T19:34:19.035Z,100505.25
2022-11-19T19:36:51.647Z,100504.09
2022-11-19T19:39:19.784Z,100504.44
2022-11-19T19:41:48.525Z,100509.44
2022-11-19T19:44:15.029Z,100507.38
2022-11-19T19:46:43.338Z,100508.91
2022-11-19T19:49:09.851Z,100504.41
2022-11-19T19:51:36.577Z,100509.44
2022-11-19T19:54:03.208Z,100511.81
2022-11-19T19:56:31.525Z,100508.38
2022-11-19T19:58:59.299Z,100507.84
2022-11-19T20:01:32.351Z,100515.00
2022-11-19T20:04:07.592Z,100513.59
2022-11-19T20:06:35.867Z,100523.13
2022-11-19T20:09:09.187Z,100507.09
2022-11-19T20:11:52.702Z,100513.31
2022-11-19T20:14:19.580Z,100523.16
2022-11-19T20:16:48.067Z,100526.34
2022-11-19T20:19:14.596Z,100519.28
2022-11-19T20:21:41.941Z,100525.03
2022-11-19T20:24:12.626Z,100523.13
2022-11-19T20:26:41.959Z,100518.19
2022-11-19T20:29:11.589Z,100516.91
2022-11-19T20:31:40.076Z,100523.75
2022-11-19T20:34:07.353Z,100521.19
2022-11-19T20:36:34.910Z,100524.97
2022-11-19T20:39:01.640Z,100519.28
2022-11-19T20:41:47.183Z,100521.09
2022-11-19T20:44:22.837Z,100529.13
2022-11-19T20:47:02.896Z,100521.50
2022-11-19T20:49:33.389Z,100530.63
2022-11-19T20:52:01.009Z,100522.38
2022-11-19T20:54:28.200Z,100521.63
2022-11-19T20:56:56.047Z,100521.31
2022-11-19T20:59:24.706Z,100519.63
2022-11-19T21:01:54.618Z,100511.16
2022-11-19T21:04:23.670Z,100509.03
2022-11-19T21:06:53.243Z,100505.09
2022-11-19T21:09:20.519Z,100505.28
2022-11-19T21:11:50.509Z,100504.97
2022-11-19T21:14:18.573Z,100506.03
2022-11-19T21:16:48.278Z,100501.75
2022-11-19T21:19:15.879Z,100508.59
2022-11-19T21:21:44.336Z,100512.66
2022-11-19T21:24:12.697Z,100513.75
2022-11-19T21:26:40.005Z,100518.22
2022-11-19T21:29:07.155Z,100517.16
2022-11-19T21:31:44.115Z,100525.84
2022-11-19T21:34:17.337Z,100511.06
2022-11-19T21:36:48.012Z,100504.56
2022-11-19T21:39:17.274Z,100506.56
2022-11-19T21:41:47.785Z,100507.44
2022-11-19T21:44:19.779Z,100512.16
2022-11-19T21:46:48.849Z,100511.91
2022-11-19T21:49:15.458Z,100511.72
2022-11-19T21:51:43.305Z,100506.59
2022-11-19T21:54:09.713Z,100511.19
2022-11-19T21:56:38.877Z,100507.00
2022-11-19T21:59:06.393Z,100505.19
2022-11-19T22:01:33.092Z,100512.69
2022-11-19T22:03:59.418Z,100503.69
2022-11-19T22:06:28.750Z,100506.25
2022-11-19T22:08:54.952Z,100503.47
2022-11-19T22:11:31.186Z,100500.16
2022-11-19T22:14:07.721Z,100501.84
2022-11-19T22:16:39.700Z,100508.41
2022-11-19T22:19:12.391Z,100510.66
2022-11-19T22:21:39.501Z,100511.41
2022-11-19T22:24:06.090Z,100506.47
2022-11-19T22:26:32.909Z,100507.00
2022-11-19T22:28:59.155Z,100511.72
2022-11-19T22:31:26.116Z,100508.28
2022-11-19T22:33:53.113Z,100516.75
2022-11-19T22:36:22.944Z,100515.78
2022-11-19T22:38:50.968Z,100516.22
2022-11-19T22:41:19.151Z,100515.34
2022-11-19T22:43:45.938Z,100530.13
2022-11-19T22:46:13.898Z,100528.19
2022-11-19T22:48:41.057Z,100530.31
2022-11-19T22:51:14.806Z,100520.06
2022-11-19T22:53:42.173Z,100529.56
2022-11-19T22:56:11.141Z,100523.81
2022-11-19T22:58:38.503Z,100519.66
2022-11-19T23:01:06.361Z,100525.63
2022-11-19T23:03:32.737Z,100524.34
2022-11-19T23:05:59.404Z,100516.44
2022-11-19T23:08:25.753Z,100507.97
2022-11-19T23:10:59.744Z,100504.56
2022-11-19T23:13:31.242Z,100496.00
2022-11-19T23:16:07.176Z,100509.47
2022-11-19T23:18:47.446Z,100504.66
2022-11-19T23:21:16.926Z,100505.63
2022-11-19T23:23:43.274Z,100508.41
2022-11-19T23:26:12.490Z,100504.56
2022-11-19T23:28:42.433Z,100506.25
2022-11-19T23:31:13.625Z,100503.25
2022-11-19T23:33:40.577Z,100503.47
2022-11-19T23:36:13.019Z,100498.44
2022-11-19T23:38:40.429Z,100493.84
2022-11-19T23:41:10.899Z,100494.28
2022-11-19T23:43:37.954Z,100500.16
2022-11-19T23:46:07.164Z,100498.47
2022-11-19T23:48:34.258Z,100492.91
2022-11-19T23:51:06.655Z,100495.78
2022-11-19T23:53:33.261Z,100489.56
2022-11-19T23:56:00.086Z,100490.44
2022-11-19T23:58:26.731Z,100483.59
